Aeroporto :
LOGIN :

Iscrizione | Disclaimer

   EN    FR    IT 

 










Sommario :    VFR   VFR Marginale   IFR   IFR Intensivo   IFR Molto Intensivo
Visibilità : 
Base nubi : 
>= 8 km
>= 3000ft
5 / 8 km
1000 / 3000 ft
1500m / 5 km
500 / 1000 ft
800 / 1500m
200 / 500 ft
< 800m
< 200 ft
Simboli :   Temporali  Nebbia  Neve Forte  Precipitazioni Forti  Vento > 20 kt
SIGMETs :   Varie  Temporali  Ghiacco  Turbolenza  Onda orograficha  Ceneri Vulcaniche






- Altitudine del aeroporto : 622 ft
- Codice IATA : BRS


EGGD - Bristol Int.

ULTIMO METAR :
  • 061820Z AUTO 27019KT 9999 FEW019 BKN034 OVC041 09/07 Q1006

METARs OBSOLETI :
  • 061750Z AUTO 27017KT 9999 FEW017 SCT032 BKN039 08/07 Q1006
  • 061720Z AUTO 27017KT 9999 BKN014 BKN030 08/07 Q1005
  • 061650Z AUTO 27021KT 9999 FEW020 BKN028 09/07 Q1004
  • 061620Z AUTO 26018KT 9999 FEW009 BKN015 OVC032 09/08 Q1004
  • 061550Z AUTO 26019KT 9999 BKN009 OVC038 09/08 Q1003

TAF TAF EGGD
Valido dal 06 a 18 ore il 07 a 18 ore UTC


061701Z 0618/0718 27020G30KT 9999 SCT020
BECMG 0618/0621 27015KT
BECMG 0703/0706 20008KT
TEMPO 0703/0718 8000 BKN008
ATIS : +44 1275 473 666



MetMap, La meteo Aeronautica in un colpo d'occhio ! - Copyright ORBIFLY Dicembre 2007 - Disclaimer

ORBIFLY MET'MAP TEAM :

Programmazione e sviluppo : Alexandra Zaïnal
Concezione : Baudouin d'Aumeries
Aiuto per la programmazione : Marc-Olivier Méhu
Supporto tecnico e logistico : Manuel Goepfert
Aiuto per la traduzione : Arnaldo La Scala

Contatto : metmap@orbifly.com




FONTI E CREDITI :

   NOAA